Time,TemperatureF,DewpointF,PressureIn,WindDirection,WindDirectionDegrees,WindSpeedMPH,WindSpeedGustMPH,Humidity,HourlyPrecipIn,Conditions,Clouds,dailyrainin,SoftwareType,DateUTC
2013-11-24 00:04:00,9.9,-2.4,30.52,North,0,5.0,5.0,57,0.00,,,0.00,meteohub,2013-11-24 06:04:00,
2013-11-24 00:09:00,9.9,-2.0,30.53,NW,315,2.0,5.0,58,0.00,,,0.00,meteohub,2013-11-24 06:09:00,
2013-11-24 00:14:00,9.7,-2.2,30.52,North,0,5.0,5.0,58,0.00,,,0.00,meteohub,2013-11-24 06:14:00,
2013-11-24 00:19:00,9.5,-2.4,30.52,NW,315,4.0,5.0,58,0.00,,,0.00,meteohub,2013-11-24 06:19:00,
2013-11-24 00:25:00,9.7,-2.2,30.52,NW,315,3.0,7.0,58,0.00,,,0.00,meteohub,2013-11-24 06:25:00,
2013-11-24 00:30:00,9.5,-2.4,30.52,SW,225,3.0,7.0,58,0.00,,,0.00,meteohub,2013-11-24 06:30:00,
2013-11-24 00:35:00,9.3,-2.4,30.52,North,0,2.0,7.0,58,0.00,,,0.00,meteohub,2013-11-24 06:35:00,
2013-11-24 00:40:00,9.1,-2.6,30.53,NW,315,4.0,5.0,58,0.00,,,0.00,meteohub,2013-11-24 06:40:00,
2013-11-24 00:45:00,9.1,-2.2,30.53,North,0,4.0,4.0,59,0.00,,,0.00,meteohub,2013-11-24 06:45:00,
2013-11-24 00:50:00,9.1,-2.2,30.53,West,270,2.0,6.0,59,0.00,,,0.00,meteohub,2013-11-24 06:50:00,
2013-11-24 00:55:00,9.1,-2.2,30.53,North,0,2.0,7.0,59,0.00,,,0.00,meteohub,2013-11-24 06:55:00,
2013-11-24 01:00:00,9.1,-2.2,30.53,NW,315,3.0,7.0,59,0.00,,,0.00,meteohub,2013-11-24 07:00:00,
2013-11-24 01:05:00,9.1,-2.2,30.53,NW,315,3.0,4.0,59,0.00,,,0.00,meteohub,2013-11-24 07:05:00,
2013-11-24 01:10:00,9.1,-2.2,30.53,NW,315,4.0,4.0,59,0.00,,,0.00,meteohub,2013-11-24 07:10:00,
2013-11-24 01:15:00,9.0,-2.4,30.53,North,0,3.0,4.0,59,0.00,,,0.00,meteohub,2013-11-24 07:15:00,
2013-11-24 01:20:00,9.0,-2.0,30.52,NW,315,4.0,4.0,60,0.00,,,0.00,meteohub,2013-11-24 07:20:00,
2013-11-24 01:25:00,9.0,-2.0,30.52,NW,315,5.0,5.0,60,0.00,,,0.00,meteohub,2013-11-24 07:25:00,
2013-11-24 01:30:00,9.0,-2.0,30.53,North,0,3.0,5.0,60,0.00,,,0.00,meteohub,2013-11-24 07:30:00,
2013-11-24 01:35:00,9.0,-2.0,30.52,West,270,3.0,5.0,60,0.00,,,0.00,meteohub,2013-11-24 07:35:00,
2013-11-24 01:40:00,9.0,-2.0,30.52,NW,315,3.0,5.0,60,0.00,,,0.00,meteohub,2013-11-24 07:40:00,
2013-11-24 01:45:00,9.0,-2.4,30.52,NW,315,4.0,4.0,59,0.00,,,0.00,meteohub,2013-11-24 07:45:00,
2013-11-24 01:51:00,9.0,-2.4,30.52,NW,315,2.0,4.0,59,0.00,,,0.00,meteohub,2013-11-24 07:51:00,
2013-11-24 01:56:00,9.0,-2.4,30.52,NW,315,2.0,4.0,59,0.00,,,0.00,meteohub,2013-11-24 07:56:00,
2013-11-24 02:01:00,9.0,-2.4,30.52,North,0,3.0,4.0,59,0.00,,,0.00,meteohub,2013-11-24 08:01:00,
2013-11-24 02:06:00,9.0,-2.4,30.52,North,0,3.0,4.0,59,0.00,,,0.00,meteohub,2013-11-24 08:06:00,
2013-11-24 02:11:00,9.0,-2.4,30.52,NW,315,2.0,4.0,59,0.00,,,0.00,meteohub,2013-11-24 08:11:00,
2013-11-24 02:16:00,8.8,-2.6,30.52,North,0,4.0,4.0,59,0.00,,,0.00,meteohub,2013-11-24 08:16:00,
2013-11-24 02:21:00,9.0,-2.4,30.52,NW,315,2.0,4.0,59,0.00,,,0.00,meteohub,2013-11-24 08:21:00,
2013-11-24 02:26:00,8.8,-2.6,30.52,NW,315,4.0,4.0,59,0.00,,,0.00,meteohub,2013-11-24 08:26:00,
2013-11-24 02:31:00,8.8,-2.6,30.51,North,0,4.0,4.0,59,0.00,,,0.00,meteohub,2013-11-24 08:31:00,
2013-11-24 02:36:00,8.8,-2.6,30.52,West,270,2.0,4.0,59,0.00,,,0.00,meteohub,2013-11-24 08:36:00,
2013-11-24 02:41:00,8.6,-2.7,30.51,North,0,2.0,4.0,59,0.00,,,0.00,meteohub,2013-11-24 08:41:00,
2013-11-24 02:46:00,8.4,-2.2,30.51,NW,315,4.0,4.0,61,0.00,,,0.00,meteohub,2013-11-24 08:46:00,
2013-11-24 02:51:00,8.4,-2.2,30.51,North,0,3.0,4.0,61,0.00,,,0.00,meteohub,2013-11-24 08:51:00,
2013-11-24 02:56:00,8.2,-2.4,30.51,West,270,2.0,4.0,61,0.00,,,0.00,meteohub,2013-11-24 08:56:00,
2013-11-24 03:01:00,8.2,-2.4,30.51,SW,225,2.0,4.0,61,0.00,,,0.00,meteohub,2013-11-24 09:01:00,
2013-11-24 03:06:00,8.1,-2.6,30.51,North,0,1.0,4.0,61,0.00,,,0.00,meteohub,2013-11-24 09:06:00,
2013-11-24 03:12:00,8.1,-2.2,30.51,North,0,2.0,4.0,62,0.00,,,0.00,meteohub,2013-11-24 09:12:00,
2013-11-24 03:17:00,7.9,-2.4,30.51,North,0,4.0,4.0,62,0.00,,,0.00,meteohub,2013-11-24 09:17:00,
2013-11-24 03:22:00,7.9,-2.4,30.51,NW,315,2.0,4.0,62,0.00,,,0.00,meteohub,2013-11-24 09:22:00,
2013-11-24 03:27:00,7.9,-2.4,30.51,NW,315,4.0,4.0,62,0.00,,,0.00,meteohub,2013-11-24 09:27:00,
2013-11-24 03:32:00,7.9,-2.4,30.51,NW,315,3.0,4.0,62,0.00,,,0.00,meteohub,2013-11-24 09:32:00,
2013-11-24 03:37:00,7.9,-2.0,30.51,West,270,4.0,4.0,63,0.00,,,0.00,meteohub,2013-11-24 09:37:00,
2013-11-24 03:42:00,7.9,-2.0,30.51,NW,315,2.0,4.0,63,0.00,,,0.00,meteohub,2013-11-24 09:42:00,
2013-11-24 03:47:00,7.7,-2.0,30.51,NW,315,3.0,4.0,64,0.00,,,0.00,meteohub,2013-11-24 09:47:00,
2013-11-24 03:52:00,7.7,-2.0,30.51,NW,315,2.0,4.0,64,0.00,,,0.00,meteohub,2013-11-24 09:52:00,
2013-11-24 03:57:00,7.9,-1.8,30.51,North,0,3.0,4.0,64,0.00,,,0.00,meteohub,2013-11-24 09:57:00,
2013-11-24 04:02:00,7.9,-1.8,30.50,North,0,2.0,4.0,64,0.00,,,0.00,meteohub,2013-11-24 10:02:00,
2013-11-24 04:07:00,7.9,-1.8,30.49,North,0,2.0,4.0,64,0.00,,,0.00,meteohub,2013-11-24 10:07:00,
2013-11-24 04:12:00,7.7,-1.7,30.49,NW,315,2.0,3.0,65,0.00,,,0.00,meteohub,2013-11-24 10:12:00,
2013-11-24 04:17:00,7.9,-1.5,30.49,NW,315,2.0,2.0,65,0.00,,,0.00,meteohub,2013-11-24 10:17:00,
2013-11-24 04:22:00,7.9,-1.5,30.48,NW,315,2.0,2.0,65,0.00,,,0.00,meteohub,2013-11-24 10:22:00,
2013-11-24 04:27:00,8.1,-1.3,30.48,NW,315,2.0,2.0,65,0.00,,,0.00,meteohub,2013-11-24 10:27:00,
2013-11-24 04:32:00,7.9,-1.5,30.49,West,270,2.0,2.0,65,0.00,,,0.00,meteohub,2013-11-24 10:32:00,
2013-11-24 04:37:00,7.7,-1.7,30.49,West,270,4.0,4.0,65,0.00,,,0.00,meteohub,2013-11-24 10:37:00,
2013-11-24 04:42:00,7.7,-1.7,30.48,NW,315,2.0,4.0,65,0.00,,,0.00,meteohub,2013-11-24 10:42:00,
2013-11-24 04:47:00,7.9,-1.5,30.48,West,270,3.0,4.0,65,0.00,,,0.00,meteohub,2013-11-24 10:47:00,
2013-11-24 04:52:00,7.9,-1.5,30.80,NW,315,2.0,4.0,65,0.00,,,0.00,meteohub,2013-11-24 10:52:00,
2013-11-24 04:57:00,7.9,-1.5,30.80,NW,315,2.0,4.0,65,0.00,,,0.00,meteohub,2013-11-24 10:57:00,
2013-11-24 05:02:00,7.7,-1.7,30.80,NW,315,2.0,3.0,65,0.00,,,0.00,meteohub,2013-11-24 11:02:00,
2013-11-24 05:07:00,7.7,-1.7,30.81,NW,315,2.0,2.0,65,0.00,,,0.00,meteohub,2013-11-24 11:07:00,
2013-11-24 05:12:00,7.7,-1.3,30.81,NW,315,2.0,2.0,66,0.00,,,0.00,meteohub,2013-11-24 11:12:00,
2013-11-24 05:17:00,7.7,-1.3,30.82,NW,315,2.0,2.0,66,0.00,,,0.00,meteohub,2013-11-24 11:17:00,
2013-11-24 05:22:00,7.7,-1.3,30.82,NW,315,2.0,2.0,66,0.00,,,0.00,meteohub,2013-11-24 11:22:00,
2013-11-24 05:28:00,7.7,-1.3,30.82,North,0,2.0,3.0,66,0.00,,,0.00,meteohub,2013-11-24 11:28:00,
2013-11-24 05:33:00,7.5,-1.5,30.82,NW,315,3.0,3.0,66,0.00,,,0.00,meteohub,2013-11-24 11:33:00,
2013-11-24 05:38:00,7.5,-1.1,30.82,NW,315,3.0,3.0,67,0.00,,,0.00,meteohub,2013-11-24 11:38:00,
2013-11-24 05:43:00,7.3,-1.3,30.82,North,0,2.0,4.0,67,0.00,,,0.00,meteohub,2013-11-24 11:43:00,
2013-11-24 05:48:00,7.3,-1.3,30.82,North,0,3.0,4.0,67,0.00,,,0.00,meteohub,2013-11-24 11:48:00,
2013-11-24 05:53:00,7.2,-1.5,30.82,North,0,2.0,4.0,67,0.00,,,0.00,meteohub,2013-11-24 11:53:00,
2013-11-24 05:58:00,7.2,-1.5,30.82,NW,315,2.0,3.0,67,0.00,,,0.00,meteohub,2013-11-24 11:58:00,
2013-11-24 06:03:00,7.2,-1.5,30.82,NW,315,2.0,3.0,67,0.00,,,0.00,meteohub,2013-11-24 12:03:00,
2013-11-24 06:08:00,7.2,-1.5,30.82,North,0,2.0,3.0,67,0.00,,,0.00,meteohub,2013-11-24 12:08:00,
2013-11-24 06:13:00,7.2,-1.5,30.82,NW,315,2.0,3.0,67,0.00,,,0.00,meteohub,2013-11-24 12:13:00,
2013-11-24 06:18:00,7.2,-1.5,30.82,North,0,2.0,2.0,67,0.00,,,0.00,meteohub,2013-11-24 12:18:00,
2013-11-24 06:23:00,7.2,-1.1,30.83,NW,315,2.0,2.0,68,0.00,,,0.00,meteohub,2013-11-24 12:23:00,
2013-11-24 06:28:00,7.3,-0.9,30.83,NW,315,2.0,3.0,68,0.00,,,0.00,meteohub,2013-11-24 12:28:00,
2013-11-24 06:33:00,7.3,-0.9,30.82,NW,315,2.0,3.0,68,0.00,,,0.00,meteohub,2013-11-24 12:33:00,
2013-11-24 06:38:00,7.5,-0.8,30.83,West,270,2.0,3.0,68,0.00,,,0.00,meteohub,2013-11-24 12:38:00,
2013-11-24 06:44:00,7.5,-0.8,30.83,NW,315,2.0,3.0,68,0.00,,,0.00,meteohub,2013-11-24 12:44:00,
2013-11-24 06:49:00,7.5,-0.8,30.83,North,0,2.0,3.0,68,0.00,,,0.00,meteohub,2013-11-24 12:49:00,
2013-11-24 06:54:00,7.5,-0.8,30.83,NW,315,2.0,2.0,68,0.00,,,0.00,meteohub,2013-11-24 12:54:00,
2013-11-24 06:59:00,7.7,-0.6,30.83,West,270,2.0,2.0,68,0.00,,,0.00,meteohub,2013-11-24 12:59:00,
2013-11-24 07:04:00,7.7,-0.6,30.82,West,270,2.0,4.0,68,0.00,,,0.00,meteohub,2013-11-24 13:04:00,
2013-11-24 07:09:00,7.9,-0.4,30.82,West,270,2.0,4.0,68,0.00,,,0.00,meteohub,2013-11-24 13:09:00,
2013-11-24 07:14:00,8.2,-0.2,30.82,NW,315,2.0,4.0,68,0.00,,,0.00,meteohub,2013-11-24 13:14:00,
2013-11-24 07:19:00,8.6,0.0,30.82,West,270,2.0,3.0,67,0.00,,,0.00,meteohub,2013-11-24 13:19:00,
2013-11-24 07:24:00,9.1,0.5,30.83,NW,315,1.0,3.0,67,0.00,,,0.00,meteohub,2013-11-24 13:24:00,
2013-11-24 07:29:00,9.7,0.9,30.82,North,0,0.0,3.0,67,0.00,,,0.00,meteohub,2013-11-24 13:29:00,
2013-11-24 07:34:00,10.0,1.0,30.82,NW,315,2.0,2.0,66,0.00,,,0.00,meteohub,2013-11-24 13:34:00,
2013-11-24 07:39:00,10.8,2.8,30.82,West,270,2.0,2.0,70,0.00,,,0.00,meteohub,2013-11-24 13:39:00,
2013-11-24 07:44:00,11.3,3.4,30.81,SW,225,2.0,2.0,70,0.00,,,0.00,meteohub,2013-11-24 13:44:00,
2013-11-24 07:49:00,11.7,3.4,30.81,SW,225,2.0,2.0,69,0.00,,,0.00,meteohub,2013-11-24 13:49:00,
2013-11-24 07:54:00,12.0,3.6,30.49,South,180,2.0,3.0,68,0.00,,,0.00,meteohub,2013-11-24 13:54:00,
2013-11-24 07:59:00,12.2,3.4,30.49,South,180,2.0,3.0,67,0.00,,,0.00,meteohub,2013-11-24 13:59:00,
2013-11-24 08:04:00,12.6,3.4,30.49,South,180,2.0,3.0,66,0.00,,,0.00,meteohub,2013-11-24 14:04:00,
2013-11-24 08:10:00,12.9,3.7,30.49,SE,135,2.0,2.0,66,0.00,,,0.00,meteohub,2013-11-24 14:10:00,
2013-11-24 08:15:00,13.3,3.7,30.49,SE,135,2.0,3.0,65,0.00,,,0.00,meteohub,2013-11-24 14:15:00,
2013-11-24 08:20:00,13.5,3.9,30.49,South,180,4.0,4.0,65,0.00,,,0.00,meteohub,2013-11-24 14:20:00,
2013-11-24 08:25:00,13.6,3.7,30.49,SE,135,3.0,4.0,64,0.00,,,0.00,meteohub,2013-11-24 14:25:00,
2013-11-24 08:30:00,13.8,3.9,30.50,South,180,3.0,4.0,64,0.00,,,0.00,meteohub,2013-11-24 14:30:00,
2013-11-24 08:35:00,14.0,3.7,30.50,South,180,3.0,4.0,63,0.00,,,0.00,meteohub,2013-11-24 14:35:00,
2013-11-24 08:40:00,14.0,3.7,30.50,SW,225,3.0,4.0,63,0.00,,,0.00,meteohub,2013-11-24 14:40:00,
2013-11-24 08:45:00,14.5,4.3,30.50,South,180,5.0,5.0,63,0.00,,,0.00,meteohub,2013-11-24 14:45:00,
2013-11-24 08:50:00,14.7,3.7,30.50,South,180,3.0,6.0,61,0.00,,,0.00,meteohub,2013-11-24 14:50:00,
2013-11-24 08:55:00,15.3,3.6,30.51,SW,225,5.0,7.0,59,0.00,,,0.00,meteohub,2013-11-24 14:55:00,
2013-11-24 09:00:00,15.8,3.6,30.51,SW,225,6.0,7.0,58,0.00,,,0.00,meteohub,2013-11-24 15:00:00,
2013-11-24 09:05:00,15.8,2.8,30.51,South,180,3.0,8.0,56,0.00,,,0.00,meteohub,2013-11-24 15:05:00,
2013-11-24 09:10:00,16.2,3.2,30.51,South,180,5.0,9.0,56,0.00,,,0.00,meteohub,2013-11-24 15:10:00,
2013-11-24 09:15:00,16.5,3.2,30.52,South,180,8.0,9.0,55,0.00,,,0.00,meteohub,2013-11-24 15:15:00,
2013-11-24 09:20:00,16.5,2.3,30.52,West,270,12.0,12.0,53,0.00,,,0.00,meteohub,2013-11-24 15:20:00,
2013-11-24 09:26:00,16.5,1.9,30.52,SW,225,10.0,12.0,52,0.00,,,0.00,meteohub,2013-11-24 15:26:00,
2013-11-24 09:31:00,16.7,1.2,30.52,South,180,7.0,12.0,50,0.00,,,0.00,meteohub,2013-11-24 15:31:00,
2013-11-24 09:36:00,16.7,0.5,30.52,South,180,7.0,12.0,48,0.00,,,0.00,meteohub,2013-11-24 15:36:00,
2013-11-24 09:41:00,17.1,0.7,30.52,SW,225,8.0,13.0,48,0.00,,,0.00,meteohub,2013-11-24 15:41:00,
2013-11-24 09:46:00,17.2,0.0,30.53,SW,225,11.0,13.0,46,0.00,,,0.00,meteohub,2013-11-24 15:46:00,
2013-11-24 09:51:00,17.6,-0.2,30.52,South,180,8.0,13.0,45,0.00,,,0.00,meteohub,2013-11-24 15:51:00,
2013-11-24 09:56:00,17.8,0.0,30.52,South,180,10.0,13.0,45,0.00,,,0.00,meteohub,2013-11-24 15:56:00,
2013-11-24 10:01:00,17.8,-0.4,30.52,South,180,13.0,13.0,44,0.00,,,0.00,meteohub,2013-11-24 16:01:00,
2013-11-24 10:06:00,18.0,-0.2,30.52,South,180,11.0,15.0,44,0.00,,,0.00,meteohub,2013-11-24 16:06:00,
2013-11-24 10:11:00,18.3,0.1,30.52,SW,225,8.0,15.0,44,0.00,,,0.00,meteohub,2013-11-24 16:11:00,
2013-11-24 10:16:00,18.5,-0.2,30.52,SW,225,10.0,15.0,43,0.00,,,0.00,meteohub,2013-11-24 16:16:00,
2013-11-24 10:21:00,18.5,-0.2,30.51,SW,225,10.0,11.0,43,0.00,,,0.00,meteohub,2013-11-24 16:21:00,
2013-11-24 10:26:00,19.0,0.1,30.51,South,180,7.0,11.0,43,0.00,,,0.00,meteohub,2013-11-24 16:26:00,
2013-11-24 10:31:00,19.0,0.1,30.51,SW,225,11.0,11.0,43,0.00,,,0.00,meteohub,2013-11-24 16:31:00,
2013-11-24 10:36:00,19.4,2.5,30.51,South,180,8.0,11.0,47,0.00,,,0.00,meteohub,2013-11-24 16:36:00,
2013-11-24 10:41:00,19.9,3.0,30.50,South,180,7.0,11.0,47,0.00,,,0.00,meteohub,2013-11-24 16:41:00,
2013-11-24 10:46:00,20.3,3.2,30.50,SW,225,11.0,11.0,47,0.00,,,0.00,meteohub,2013-11-24 16:46:00,
2013-11-24 10:51:00,20.7,3.6,30.49,South,180,11.0,11.0,47,0.00,,,0.00,meteohub,2013-11-24 16:51:00,
2013-11-24 10:57:00,20.3,2.3,30.50,South,180,5.0,11.0,45,0.00,,,0.00,meteohub,2013-11-24 16:57:00,
2013-11-24 11:02:00,20.8,2.8,30.49,SW,225,11.0,11.0,45,0.00,,,0.00,meteohub,2013-11-24 17:02:00,
2013-11-24 11:07:00,21.0,3.0,30.49,West,270,6.0,11.0,45,0.00,,,0.00,meteohub,2013-11-24 17:07:00,
2013-11-24 11:12:00,21.9,3.4,30.48,SW,225,8.0,11.0,44,0.00,,,0.00,meteohub,2013-11-24 17:12:00,
2013-11-24 11:17:00,21.4,2.3,30.48,South,180,9.0,12.0,43,0.00,,,0.00,meteohub,2013-11-24 17:17:00,
2013-11-24 11:22:00,21.4,1.8,30.48,South,180,9.0,14.0,42,0.00,,,0.00,meteohub,2013-11-24 17:22:00,
2013-11-24 11:27:00,22.3,3.7,30.47,SW,225,8.0,14.0,44,0.00,,,0.00,meteohub,2013-11-24 17:27:00,
2013-11-24 11:32:00,22.3,3.7,30.46,SW,225,7.0,12.0,44,0.00,,,0.00,meteohub,2013-11-24 17:32:00,
2013-11-24 11:37:00,22.6,3.9,30.46,South,180,7.0,12.0,44,0.00,,,0.00,meteohub,2013-11-24 17:37:00,
2013-11-24 11:42:00,23.0,2.8,30.45,South,180,10.0,12.0,41,0.00,,,0.00,meteohub,2013-11-24 17:42:00,
2013-11-24 11:47:00,23.0,2.3,30.45,SW,225,8.0,11.0,40,0.00,,,0.00,meteohub,2013-11-24 17:47:00,
2013-11-24 11:52:00,23.2,1.4,30.45,SW,225,8.0,10.0,38,0.00,,,0.00,meteohub,2013-11-24 17:52:00,
2013-11-24 11:57:00,23.4,1.6,30.44,SW,225,9.0,11.0,38,0.00,,,0.00,meteohub,2013-11-24 17:57:00,
2013-11-24 12:02:00,23.4,0.9,30.43,South,180,8.0,11.0,37,0.00,,,0.00,meteohub,2013-11-24 18:02:00,
2013-11-24 12:07:00,23.4,0.9,30.43,South,180,8.0,11.0,37,0.00,,,0.00,meteohub,2013-11-24 18:07:00,
2013-11-24 12:12:00,23.4,-0.2,30.43,South,180,9.0,12.0,35,0.00,,,0.00,meteohub,2013-11-24 18:12:00,
2013-11-24 12:17:00,23.7,0.1,30.43,South,180,9.0,12.0,35,0.00,,,0.00,meteohub,2013-11-24 18:17:00,
2013-11-24 12:22:00,23.7,-0.6,30.43,SW,225,8.0,12.0,34,0.00,,,0.00,meteohub,2013-11-24 18:22:00,
2013-11-24 12:27:00,24.4,0.7,30.43,SW,225,8.0,18.0,35,0.00,,,0.00,meteohub,2013-11-24 18:27:00,
2013-11-24 12:32:00,24.6,0.3,30.42,SW,225,14.0,18.0,34,0.00,,,0.00,meteohub,2013-11-24 18:32:00,
2013-11-24 12:37:00,24.6,-1.1,30.42,SW,225,12.0,15.0,32,0.00,,,0.00,meteohub,2013-11-24 18:37:00,
2013-11-24 12:42:00,24.6,-1.7,30.42,SW,225,8.0,16.0,31,0.00,,,0.00,meteohub,2013-11-24 18:42:00,
2013-11-24 12:47:00,25.2,-2.6,30.42,SW,225,12.0,16.0,29,0.00,,,0.00,meteohub,2013-11-24 18:47:00,
2013-11-24 12:52:00,25.2,-2.6,30.41,SW,225,20.0,20.0,29,0.00,,,0.00,meteohub,2013-11-24 18:52:00,
2013-11-24 12:57:00,25.2,-2.6,30.41,SW,225,13.0,20.0,29,0.00,,,0.00,meteohub,2013-11-24 18:57:00,
2013-11-24 13:02:00,24.8,-3.6,30.41,SW,225,9.0,20.0,28,0.00,,,0.00,meteohub,2013-11-24 19:02:00,
2013-11-24 13:07:00,25.7,-2.2,30.40,SW,225,14.0,20.0,29,0.00,,,0.00,meteohub,2013-11-24 19:07:00,
2013-11-24 13:12:00,25.2,-3.5,30.40,SW,225,14.0,16.0,28,0.00,,,0.00,meteohub,2013-11-24 19:12:00,
2013-11-24 13:17:00,25.3,-3.3,30.39,NW,315,11.0,21.0,28,0.00,,,0.00,meteohub,2013-11-24 19:17:00,
2013-11-24 13:22:00,25.5,-3.1,30.39,SW,225,16.0,21.0,28,0.00,,,0.00,meteohub,2013-11-24 19:22:00,
2013-11-24 13:27:00,25.3,-3.3,30.39,SW,225,13.0,21.0,28,0.00,,,0.00,meteohub,2013-11-24 19:27:00,
2013-11-24 13:32:00,25.7,-2.9,30.38,SW,225,15.0,17.0,28,0.00,,,0.00,meteohub,2013-11-24 19:32:00,
2013-11-24 13:37:00,25.5,-3.8,30.38,SW,225,15.0,17.0,27,0.00,,,0.00,meteohub,2013-11-24 19:37:00,
2013-11-24 13:42:00,25.5,-3.8,30.38,WNW,293,16.0,19.0,27,0.00,,,0.00,meteohub,2013-11-24 19:42:00,
2013-11-24 13:47:00,26.4,-3.1,30.38,South,180,10.0,20.0,27,0.00,,,0.00,meteohub,2013-11-24 19:47:00,
2013-11-24 13:52:00,26.6,-3.6,30.38,SW,225,12.0,20.0,26,0.00,,,0.00,meteohub,2013-11-24 19:52:00,
2013-11-24 13:57:00,26.4,-3.1,30.38,SW,225,17.0,17.0,27,0.00,,,0.00,meteohub,2013-11-24 19:57:00,
2013-11-24 14:02:00,26.4,-3.1,30.38,SW,225,11.0,17.0,27,0.00,,,0.00,meteohub,2013-11-24 20:02:00,
2013-11-24 14:07:00,26.4,-3.1,30.38,SW,225,11.0,17.0,27,0.00,,,0.00,meteohub,2013-11-24 20:07:00,
2013-11-24 14:12:00,26.6,-4.5,30.38,WSW,248,17.0,17.0,25,0.00,,,0.00,meteohub,2013-11-24 20:12:00,
2013-11-24 14:17:00,26.4,-3.8,30.38,SW,225,15.0,18.0,26,0.00,,,0.00,meteohub,2013-11-24 20:17:00,
2013-11-24 14:22:00,26.6,-4.5,30.38,SW,225,16.0,18.0,25,0.00,,,0.00,meteohub,2013-11-24 20:22:00,
2013-11-24 14:27:00,27.0,-4.2,30.37,SW,225,14.0,18.0,25,0.00,,,0.00,meteohub,2013-11-24 20:27:00,
2013-11-24 14:32:00,27.0,-4.2,30.37,SW,225,12.0,17.0,25,0.00,,,0.00,meteohub,2013-11-24 20:32:00,
2013-11-24 14:37:00,26.6,-4.5,30.37,South,180,15.0,20.0,25,0.00,,,0.00,meteohub,2013-11-24 20:37:00,
2013-11-24 14:42:00,26.6,-5.3,30.37,North,0,18.0,20.0,24,0.00,,,0.00,meteohub,2013-11-24 20:42:00,
2013-11-24 14:47:00,26.8,-5.3,30.37,South,180,15.0,20.0,24,0.00,,,0.00,meteohub,2013-11-24 20:47:00,
2013-11-24 14:52:00,27.1,-4.9,30.37,South,180,17.0,20.0,24,0.00,,,0.00,meteohub,2013-11-24 20:52:00,
2013-11-24 14:57:00,27.0,-5.1,30.36,SW,225,7.0,18.0,24,0.00,,,0.00,meteohub,2013-11-24 20:57:00,
2013-11-24 15:02:00,27.3,-4.7,30.36,SW,225,12.0,17.0,24,0.00,,,0.00,meteohub,2013-11-24 21:02:00,
2013-11-24 15:07:00,27.3,-4.7,30.36,SW,225,17.0,17.0,24,0.00,,,0.00,meteohub,2013-11-24 21:07:00,
2013-11-24 15:12:00,27.0,-5.1,30.36,SW,225,11.0,17.0,24,0.00,,,0.00,meteohub,2013-11-24 21:12:00,
2013-11-24 15:17:00,27.0,-5.1,30.36,SW,225,10.0,17.0,24,0.00,,,0.00,meteohub,2013-11-24 21:17:00,
2013-11-24 15:22:00,27.0,-5.1,30.36,South,180,11.0,17.0,24,0.00,,,0.00,meteohub,2013-11-24 21:22:00,
2013-11-24 15:27:00,27.0,-5.1,30.36,SW,225,11.0,17.0,24,0.00,,,0.00,meteohub,2013-11-24 21:27:00,
2013-11-24 15:32:00,26.8,-5.3,30.36,SW,225,9.0,17.0,24,0.00,,,0.00,meteohub,2013-11-24 21:32:00,
2013-11-24 15:37:00,26.8,-5.3,30.35,SW,225,11.0,17.0,24,0.00,,,0.00,meteohub,2013-11-24 21:37:00,
2013-11-24 15:42:00,26.8,-5.3,30.35,SW,225,14.0,17.0,24,0.00,,,0.00,meteohub,2013-11-24 21:42:00,
2013-11-24 15:47:00,26.6,-4.5,30.36,South,180,8.0,14.0,25,0.00,,,0.00,meteohub,2013-11-24 21:47:00,
2013-11-24 15:52:00,26.2,-4.0,30.36,South,180,10.0,15.0,26,0.00,,,0.00,meteohub,2013-11-24 21:52:00,
2013-11-24 15:57:00,26.1,-4.2,30.35,South,180,13.0,15.0,26,0.00,,,0.00,meteohub,2013-11-24 21:57:00,
2013-11-24 16:02:00,26.1,-4.2,30.35,SW,225,15.0,15.0,26,0.00,,,0.00,meteohub,2013-11-24 22:02:00,
2013-11-24 16:07:00,26.1,-4.2,30.35,SW,225,15.0,17.0,26,0.00,,,0.00,meteohub,2013-11-24 22:07:00,
2013-11-24 16:12:00,25.5,-4.5,30.35,South,180,11.0,17.0,26,0.00,,,0.00,meteohub,2013-11-24 22:12:00,
2013-11-24 16:17:00,25.3,-4.0,30.35,SW,225,7.0,15.0,27,0.00,,,0.00,meteohub,2013-11-24 22:17:00,
2013-11-24 16:22:00,25.2,-3.5,30.35,SW,225,17.0,17.0,28,0.00,,,0.00,meteohub,2013-11-24 22:22:00,
2013-11-24 16:27:00,24.8,-3.6,30.35,SW,225,12.0,17.0,28,0.00,,,0.00,meteohub,2013-11-24 22:27:00,
2013-11-24 16:32:00,24.4,-3.3,30.35,SW,225,11.0,17.0,29,0.00,,,0.00,meteohub,2013-11-24 22:32:00,
2013-11-24 16:37:00,24.3,-3.5,30.35,SW,225,10.0,17.0,29,0.00,,,0.00,meteohub,2013-11-24 22:37:00,
2013-11-24 16:42:00,24.1,-2.2,30.34,SW,225,8.0,15.0,31,0.00,,,0.00,meteohub,2013-11-24 22:42:00,
2013-11-24 16:47:00,24.1,-1.5,30.33,South,180,8.0,15.0,32,0.00,,,0.00,meteohub,2013-11-24 22:47:00,
2013-11-24 16:52:00,23.9,-1.1,30.34,South,180,8.0,15.0,33,0.00,,,0.00,meteohub,2013-11-24 22:52:00,
2013-11-24 16:57:00,23.9,-1.1,30.33,SE,135,7.0,15.0,33,0.00,,,0.00,meteohub,2013-11-24 22:57:00,
2013-11-24 17:02:00,23.7,-1.1,30.33,SW,225,15.0,15.0,33,0.00,,,0.00,meteohub,2013-11-24 23:02:00,
2013-11-24 17:07:00,23.7,-0.6,30.33,South,180,11.0,15.0,34,0.00,,,0.00,meteohub,2013-11-24 23:07:00,
2013-11-24 17:12:00,23.7,-0.6,30.32,SW,225,6.0,15.0,34,0.00,,,0.00,meteohub,2013-11-24 23:12:00,
2013-11-24 17:17:00,23.5,-0.8,30.32,South,180,7.0,15.0,34,0.00,,,0.00,meteohub,2013-11-24 23:17:00,
2013-11-24 17:22:00,23.5,-0.8,30.32,SW,225,11.0,14.0,34,0.00,,,0.00,meteohub,2013-11-24 23:22:00,
2013-11-24 17:27:00,23.4,-0.9,30.31,SW,225,8.0,14.0,34,0.00,,,0.00,meteohub,2013-11-24 23:27:00,
2013-11-24 17:32:00,23.4,-0.2,30.31,SSW,203,13.0,14.0,35,0.00,,,0.00,meteohub,2013-11-24 23:32:00,
2013-11-24 17:37:00,23.2,-1.1,30.31,SW,225,8.0,13.0,34,0.00,,,0.00,meteohub,2013-11-24 23:37:00,
2013-11-24 17:42:00,23.2,-0.4,30.31,South,180,8.0,13.0,35,0.00,,,0.00,meteohub,2013-11-24 23:42:00,
2013-11-24 17:47:00,23.2,-0.4,30.31,SW,225,8.0,14.0,35,0.00,,,0.00,meteohub,2013-11-24 23:47:00,
2013-11-24 17:52:00,23.0,-0.6,30.30,WSW,248,8.0,14.0,35,0.00,,,0.00,meteohub,2013-11-24 23:52:00,
2013-11-24 17:57:00,23.0,0.0,30.30,South,180,7.0,14.0,36,0.00,,,0.00,meteohub,2013-11-24 23:57:00,
2013-11-24 18:02:00,23.0,0.0,30.30,South,180,6.0,11.0,36,0.00,,,0.00,meteohub,2013-11-25 00:02:00,
2013-11-24 18:07:00,23.0,0.0,30.30,South,180,6.0,11.0,36,0.00,,,0.00,meteohub,2013-11-25 00:07:00,
2013-11-24 18:12:00,22.6,0.9,30.29,SW,225,12.0,12.0,38,0.00,,,0.00,meteohub,2013-11-25 00:12:00,
2013-11-24 18:17:00,22.6,0.9,30.28,SW,225,9.0,12.0,38,0.00,,,0.00,meteohub,2013-11-25 00:17:00,
2013-11-24 18:22:00,22.8,1.6,30.28,South,180,15.0,15.0,39,0.00,,,0.00,meteohub,2013-11-25 00:22:00,
2013-11-24 18:27:00,23.0,1.2,30.27,South,180,10.0,15.0,38,0.00,,,0.00,meteohub,2013-11-25 00:27:00,
2013-11-24 18:32:00,22.6,1.9,30.27,South,180,8.0,15.0,40,0.00,,,0.00,meteohub,2013-11-25 00:32:00,
2013-11-24 18:37:00,22.6,1.9,30.27,SE,135,15.0,15.0,40,0.00,,,0.00,meteohub,2013-11-25 00:37:00,
2013-11-24 18:42:00,22.6,1.9,30.26,SW,225,10.0,15.0,40,0.00,,,0.00,meteohub,2013-11-25 00:42:00,
2013-11-24 18:47:00,22.5,2.3,30.26,WSW,248,8.0,15.0,41,0.00,,,0.00,meteohub,2013-11-25 00:47:00,
2013-11-24 18:52:00,22.5,2.3,30.26,South,180,12.0,15.0,41,0.00,,,0.00,meteohub,2013-11-25 00:52:00,
2013-11-24 18:57:00,22.6,2.5,30.26,SW,225,8.0,18.0,41,0.00,,,0.00,meteohub,2013-11-25 00:57:00,
2013-11-24 19:02:00,22.5,2.3,30.26,NE,45,11.0,18.0,41,0.00,,,0.00,meteohub,2013-11-25 01:02:00,
2013-11-24 19:07:00,22.6,2.5,30.25,South,180,13.0,18.0,41,0.00,,,0.00,meteohub,2013-11-25 01:07:00,
2013-11-24 19:12:00,22.5,2.3,30.25,South,180,11.0,17.0,41,0.00,,,0.00,meteohub,2013-11-25 01:12:00,
2013-11-24 19:17:00,22.5,2.3,30.25,SE,135,11.0,17.0,41,0.00,,,0.00,meteohub,2013-11-25 01:17:00,
2013-11-24 19:22:00,22.5,2.3,30.24,South,180,15.0,17.0,41,0.00,,,0.00,meteohub,2013-11-25 01:22:00,
2013-11-24 19:27:00,22.5,2.3,30.23,South,180,12.0,16.0,41,0.00,,,0.00,meteohub,2013-11-25 01:27:00,
2013-11-24 19:32:00,22.5,2.3,30.23,South,180,18.0,18.0,41,0.00,,,0.00,meteohub,2013-11-25 01:32:00,
2013-11-24 19:37:00,22.5,1.8,30.23,SE,135,10.0,18.0,40,0.00,,,0.00,meteohub,2013-11-25 01:37:00,
2013-11-24 19:42:00,22.3,2.1,30.22,SW,225,12.0,18.0,41,0.00,,,0.00,meteohub,2013-11-25 01:42:00,
2013-11-24 19:47:00,22.5,1.8,30.22,SE,135,10.0,18.0,40,0.00,,,0.00,meteohub,2013-11-25 01:47:00,
2013-11-24 19:52:00,22.3,2.1,30.23,SW,225,8.0,18.0,41,0.00,,,0.00,meteohub,2013-11-25 01:52:00,
2013-11-24 19:57:00,21.7,1.0,30.23,South,180,17.0,18.0,40,0.00,,,0.00,meteohub,2013-11-25 01:57:00,
2013-11-24 20:03:00,21.7,1.6,30.22,South,180,12.0,17.0,41,0.00,,,0.00,meteohub,2013-11-25 02:03:00,
2013-11-24 20:08:00,21.6,1.9,30.22,South,180,11.0,17.0,42,0.00,,,0.00,meteohub,2013-11-25 02:08:00,
2013-11-24 20:13:00,21.6,2.5,30.22,South,180,13.0,17.0,43,0.00,,,0.00,meteohub,2013-11-25 02:13:00,
2013-11-24 20:18:00,21.7,3.2,30.22,South,180,11.0,17.0,44,0.00,,,0.00,meteohub,2013-11-25 02:18:00,
2013-11-24 20:23:00,21.7,3.2,30.22,South,180,10.0,21.0,44,0.00,,,0.00,meteohub,2013-11-25 02:23:00,
2013-11-24 20:28:00,21.6,3.0,30.22,SW,225,8.0,21.0,44,0.00,,,0.00,meteohub,2013-11-25 02:28:00,
2013-11-24 20:33:00,21.6,3.0,30.22,SW,225,13.0,21.0,44,0.00,,,0.00,meteohub,2013-11-25 02:33:00,
2013-11-24 20:38:00,21.6,3.0,30.22,South,180,13.0,15.0,44,0.00,,,0.00,meteohub,2013-11-25 02:38:00,
2013-11-24 20:43:00,21.6,3.0,30.22,SW,225,10.0,15.0,44,0.00,,,0.00,meteohub,2013-11-25 02:43:00,
2013-11-24 20:48:00,21.4,2.8,30.22,South,180,9.0,16.0,44,0.00,,,0.00,meteohub,2013-11-25 02:48:00,
2013-11-24 20:54:00,21.4,2.8,30.21,SW,225,7.0,16.0,44,0.00,,,0.00,meteohub,2013-11-25 02:54:00,
2013-11-24 20:59:00,21.4,3.4,30.21,South,180,12.0,16.0,45,0.00,,,0.00,meteohub,2013-11-25 02:59:00,
2013-11-24 21:04:00,21.4,3.4,30.22,SW,225,11.0,15.0,45,0.00,,,0.00,meteohub,2013-11-25 03:04:00,
2013-11-24 21:09:00,21.2,3.2,30.21,SW,225,10.0,15.0,45,0.00,,,0.00,meteohub,2013-11-25 03:09:00,
2013-11-24 21:14:00,21.2,3.2,30.20,SW,225,7.0,13.0,45,0.00,,,0.00,meteohub,2013-11-25 03:14:00,
2013-11-24 21:19:00,21.0,3.6,30.20,SE,135,13.0,13.0,46,0.00,,,0.00,meteohub,2013-11-25 03:19:00,
2013-11-24 21:24:00,21.2,3.2,30.20,SW,225,13.0,15.0,45,0.00,,,0.00,meteohub,2013-11-25 03:24:00,
2013-11-24 21:29:00,21.2,3.6,30.20,SW,225,13.0,21.0,46,0.00,,,0.00,meteohub,2013-11-25 03:29:00,
2013-11-24 21:34:00,21.2,3.6,30.20,South,180,5.0,21.0,46,0.00,,,0.00,meteohub,2013-11-25 03:34:00,
2013-11-24 21:40:00,21.0,3.9,30.19,South,180,9.0,21.0,47,0.00,,,0.00,meteohub,2013-11-25 03:40:00,
2013-11-24 21:45:00,20.8,3.7,30.19,South,180,12.0,16.0,47,0.00,,,0.00,meteohub,2013-11-25 03:45:00,
2013-11-24 21:50:00,20.8,4.3,30.19,South,180,15.0,15.0,48,0.00,,,0.00,meteohub,2013-11-25 03:50:00,
2013-11-24 21:55:00,20.8,4.3,30.19,South,180,12.0,16.0,48,0.00,,,0.00,meteohub,2013-11-25 03:55:00,
2013-11-24 22:00:00,20.8,4.3,30.19,South,180,12.0,16.0,48,0.00,,,0.00,meteohub,2013-11-25 04:00:00,
2013-11-24 22:05:00,20.8,4.3,30.19,South,180,12.0,16.0,48,0.00,,,0.00,meteohub,2013-11-25 04:05:00,
2013-11-24 22:10:00,20.7,4.1,30.19,East,90,12.0,16.0,48,0.00,,,0.00,meteohub,2013-11-25 04:10:00,
2013-11-24 22:15:00,20.8,4.3,30.19,SW,225,17.0,17.0,48,0.00,,,0.00,meteohub,2013-11-25 04:15:00,
2013-11-24 22:20:00,20.7,4.1,30.18,SW,225,13.0,17.0,48,0.00,,,0.00,meteohub,2013-11-25 04:20:00,
2013-11-24 22:26:00,20.7,4.1,30.18,SW,225,10.0,17.0,48,0.00,,,0.00,meteohub,2013-11-25 04:26:00,
2013-11-24 22:31:00,20.7,4.1,30.18,SW,225,13.0,17.0,48,0.00,,,0.00,meteohub,2013-11-25 04:31:00,
2013-11-24 22:36:00,20.5,4.3,30.18,SW,225,7.0,16.0,49,0.00,,,0.00,meteohub,2013-11-25 04:36:00,
2013-11-24 22:41:00,20.5,4.3,30.18,SW,225,12.0,16.0,49,0.00,,,0.00,meteohub,2013-11-25 04:41:00,
2013-11-24 22:46:00,20.5,4.3,30.18,SE,135,11.0,16.0,49,0.00,,,0.00,meteohub,2013-11-25 04:46:00,
2013-11-24 22:51:00,20.3,4.1,30.18,South,180,9.0,16.0,49,0.00,,,0.00,meteohub,2013-11-25 04:51:00,
2013-11-24 22:56:00,20.3,4.1,30.18,SW,225,10.0,13.0,49,0.00,,,0.00,meteohub,2013-11-25 04:56:00,
2013-11-24 23:01:00,20.3,4.1,30.18,South,180,8.0,11.0,49,0.00,,,0.00,meteohub,2013-11-25 05:01:00,
2013-11-24 23:02:00,20.3,4.1,30.18,South,180,8.0,11.0,49,0.00,,,0.00,meteohub,2013-11-25 05:02:00,
2013-11-24 23:03:00,20.3,4.6,30.17,South,180,8.0,11.0,50,0.00,,,0.00,meteohub,2013-11-25 05:03:00,
2013-11-24 23:04:00,20.3,4.6,30.18,SW,225,7.0,11.0,50,0.00,,,0.00,meteohub,2013-11-25 05:04:00,
2013-11-24 23:06:00,20.1,4.5,30.18,South,180,10.0,11.0,50,0.00,,,0.00,meteohub,2013-11-25 05:06:00,
2013-11-24 23:11:00,20.3,4.6,30.17,South,180,8.0,13.0,50,0.00,,,0.00,meteohub,2013-11-25 05:11:00,
2013-11-24 23:12:00,20.3,4.6,30.17,South,180,9.0,13.0,50,0.00,,,0.00,meteohub,2013-11-25 05:12:00,
2013-11-24 23:17:00,20.1,4.5,30.17,South,180,11.0,13.0,50,0.00,,,0.00,meteohub,2013-11-25 05:17:00,
2013-11-24 23:22:00,19.9,4.6,30.17,SW,225,13.0,13.0,51,0.00,,,0.00,meteohub,2013-11-25 05:22:00,
2013-11-24 23:27:00,19.9,4.6,30.16,South,180,17.0,17.0,51,0.00,,,0.00,meteohub,2013-11-25 05:27:00,
2013-11-24 23:32:00,19.9,4.6,30.15,SW,225,13.0,17.0,51,0.00,,,0.00,meteohub,2013-11-25 05:32:00,
2013-11-24 23:37:00,19.9,4.6,30.15,SE,135,13.0,17.0,51,0.00,,,0.00,meteohub,2013-11-25 05:37:00,
2013-11-24 23:42:00,19.9,5.2,30.14,South,180,8.0,17.0,52,0.00,,,0.00,meteohub,2013-11-25 05:42:00,
2013-11-24 23:47:00,19.8,5.0,30.14,SW,225,9.0,15.0,52,0.00,,,0.00,meteohub,2013-11-25 05:47:00,
2013-11-24 23:52:00,19.8,5.0,30.14,SE,135,10.0,15.0,52,0.00,,,0.00,meteohub,2013-11-25 05:52:00,
2013-11-24 23:57:00,19.8,5.0,30.14,South,180,8.0,15.0,52,0.00,,,0.00,meteohub,2013-11-25 05:57:00,